createdAt,value
2023-03-17T00:01:54.834Z,0.50
2023-03-17T00:04:26.972Z,0.50
2023-03-17T00:06:55.108Z,0.50
2023-03-17T00:09:22.765Z,0.50
2023-03-17T00:11:50.265Z,0.50
2023-03-17T00:14:18.175Z,0.50
2023-03-17T00:16:50.194Z,0.40
2023-03-17T00:19:32.522Z,0.40
2023-03-17T00:22:01.442Z,0.50
2023-03-17T00:24:28.997Z,0.40
2023-03-17T00:26:56.273Z,0.40
2023-03-17T00:29:24.366Z,0.40
2023-03-17T00:31:51.431Z,0.50
2023-03-17T00:34:19.592Z,0.40
2023-03-17T00:36:48.655Z,0.40
2023-03-17T00:41:43.813Z,0.40
2023-03-17T00:44:12.042Z,0.40
2023-03-17T00:46:39.660Z,0.40
2023-03-17T00:49:22.260Z,0.40
2023-03-17T00:51:50.828Z,0.40
2023-03-17T00:54:20.808Z,0.40
2023-03-17T00:56:50.052Z,0.40
2023-03-17T00:59:26.265Z,0.40
2023-03-17T01:01:53.810Z,0.40
2023-03-17T01:04:21.086Z,0.40
2023-03-17T01:06:49.679Z,0.40
2023-03-17T01:09:18.671Z,0.40
2023-03-17T01:11:46.167Z,0.40
2023-03-17T01:14:13.623Z,0.50
2023-03-17T01:16:41.225Z,0.50
2023-03-17T01:19:11.664Z,0.50
2023-03-17T01:21:38.823Z,0.50
2023-03-17T01:24:06.600Z,0.50
2023-03-17T01:26:33.783Z,0.50
2023-03-17T01:29:00.985Z,0.50
2023-03-17T01:31:28.169Z,0.40
2023-03-17T01:33:55.154Z,0.50
2023-03-17T01:36:22.246Z,0.50
2023-03-17T01:38:51.153Z,0.60
2023-03-17T01:41:20.907Z,0.50
2023-03-17T01:43:48.347Z,0.50
2023-03-17T01:46:18.511Z,0.60
2023-03-17T01:49:08.060Z,0.60
2023-03-17T01:51:57.809Z,0.60
2023-03-17T01:54:35.916Z,0.70
2023-03-17T01:57:11.981Z,0.60
2023-03-17T01:59:43.953Z,0.70
2023-03-17T02:02:18.176Z,0.60
2023-03-17T02:04:45.272Z,0.60
2023-03-17T02:07:13.736Z,0.60
2023-03-17T02:09:40.857Z,0.60
2023-03-17T02:12:09.451Z,0.60
2023-03-17T02:14:39.975Z,0.50
2023-03-17T02:17:07.837Z,0.60
2023-03-17T02:19:35.359Z,0.60
2023-03-17T02:22:02.745Z,0.50
2023-03-17T02:24:45.014Z,0.50
2023-03-17T02:27:24.085Z,0.60
2023-03-17T02:29:52.368Z,0.60
2023-03-17T02:32:20.539Z,0.60
2023-03-17T02:34:48.603Z,0.60
2023-03-17T02:37:17.896Z,0.60
2023-03-17T02:39:45.577Z,0.50
2023-03-17T02:42:14.180Z,0.60
2023-03-17T02:44:41.344Z,0.60
2023-03-17T02:47:08.794Z,0.60
2023-03-17T02:49:37.592Z,0.60
2023-03-17T02:52:08.277Z,0.60
2023-03-17T02:54:36.113Z,0.60
2023-03-17T02:57:03.347Z,0.50
2023-03-17T02:59:30.407Z,0.60
2023-03-17T03:01:57.636Z,0.50
2023-03-17T03:04:24.712Z,0.60
2023-03-17T03:06:52.628Z,0.50
2023-03-17T03:09:20.285Z,0.50
2023-03-17T03:11:48.114Z,0.40
2023-03-17T03:14:15.247Z,0.40
2023-03-17T03:16:43.594Z,0.40
2023-03-17T03:19:11.135Z,0.40
2023-03-17T03:21:38.177Z,0.40
2023-03-17T03:24:06.561Z,0.40
2023-03-17T03:26:33.614Z,0.40
2023-03-17T03:29:04.578Z,0.40
2023-03-17T03:31:31.883Z,0.30
2023-03-17T03:33:59.022Z,0.30
2023-03-17T03:36:27.043Z,0.30
2023-03-17T03:38:54.145Z,0.30
2023-03-17T03:41:21.441Z,0.40
2023-03-17T03:43:48.688Z,0.30
2023-03-17T03:46:15.970Z,0.30
2023-03-17T03:48:42.939Z,0.40
2023-03-17T03:51:10.286Z,0.30
2023-03-17T03:53:37.312Z,0.30
2023-03-17T03:56:04.745Z,0.30
2023-03-17T03:58:31.933Z,0.30
2023-03-17T04:00:58.948Z,0.30
2023-03-17T04:03:26.038Z,0.30
2023-03-17T04:05:53.183Z,0.30
2023-03-17T04:08:20.321Z,0.30
2023-03-17T04:10:47.695Z,0.30
2023-03-17T04:13:15.594Z,0.30
2023-03-17T04:15:42.814Z,0.20
2023-03-17T04:18:09.849Z,0.30
2023-03-17T04:20:36.985Z,0.20
2023-03-17T04:23:04.279Z,0.20
2023-03-17T04:25:31.636Z,0.20
2023-03-17T04:27:58.697Z,0.30
2023-03-17T04:30:26.522Z,0.20
2023-03-17T04:32:53.519Z,0.20
2023-03-17T04:35:22.728Z,0.20
2023-03-17T04:37:50.186Z,0.20
2023-03-17T04:40:18.589Z,0.20
2023-03-17T04:42:46.129Z,0.30
2023-03-17T04:45:17.414Z,0.30
2023-03-17T04:47:46.296Z,0.30
2023-03-17T04:50:16.612Z,0.30
2023-03-17T04:52:43.842Z,0.30
2023-03-17T04:55:12.244Z,0.30
2023-03-17T04:57:39.589Z,0.30
2023-03-17T05:00:08.187Z,0.30
2023-03-17T05:02:35.594Z,0.30
2023-03-17T05:05:03.535Z,0.40
2023-03-17T05:07:32.834Z,0.40
2023-03-17T05:10:05.647Z,0.40
2023-03-17T05:12:32.751Z,0.40
2023-03-17T05:14:59.816Z,0.50
2023-03-17T05:17:27.131Z,0.50
2023-03-17T05:19:54.116Z,0.50
2023-03-17T05:22:21.251Z,0.50
2023-03-17T05:24:48.530Z,0.60
2023-03-17T05:27:15.748Z,0.60
2023-03-17T05:29:43.209Z,0.60
2023-03-17T05:32:10.559Z,0.60
2023-03-17T05:34:37.584Z,0.60
2023-03-17T05:37:04.936Z,0.70
2023-03-17T05:39:33.003Z,0.70
2023-03-17T05:41:59.981Z,0.70
2023-03-17T05:44:26.941Z,0.70
2023-03-17T05:46:55.532Z,0.80
2023-03-17T05:49:22.737Z,0.90
2023-03-17T05:51:50.030Z,0.90
2023-03-17T05:54:17.249Z,0.90
2023-03-17T05:56:44.613Z,1.00
2023-03-17T05:59:15.014Z,1.00
2023-03-17T06:01:42.640Z,1.10
2023-03-17T06:04:09.958Z,1.10
2023-03-17T06:06:37.240Z,1.20
2023-03-17T06:09:04.764Z,1.20
2023-03-17T06:11:32.015Z,1.20
2023-03-17T06:13:59.132Z,1.30
2023-03-17T06:16:29.096Z,1.30
2023-03-17T06:18:56.947Z,1.30
2023-03-17T06:21:24.001Z,1.30
2023-03-17T06:23:51.372Z,1.40
2023-03-17T06:26:18.397Z,1.50
2023-03-17T06:28:45.699Z,1.50
2023-03-17T06:31:13.053Z,1.60
2023-03-17T06:33:40.381Z,1.50
2023-03-17T06:36:08.334Z,1.50
2023-03-17T06:38:35.581Z,1.60
2023-03-17T06:41:03.469Z,1.60
2023-03-17T06:43:31.632Z,1.60
2023-03-17T06:45:59.144Z,1.70
2023-03-17T06:48:26.232Z,1.70
2023-03-17T06:50:53.348Z,1.70
2023-03-17T06:53:21.015Z,1.80
2023-03-17T06:55:48.567Z,1.80
2023-03-17T06:58:16.183Z,1.80
2023-03-17T07:00:45.627Z,1.80
2023-03-17T07:03:12.974Z,1.90
2023-03-17T07:05:40.402Z,1.90
2023-03-17T07:08:08.398Z,1.90
2023-03-17T07:10:36.792Z,2.00
2023-03-17T07:13:06.148Z,2.00
2023-03-17T07:15:35.213Z,2.00
2023-03-17T07:18:02.586Z,2.00
2023-03-17T07:20:29.772Z,2.00
2023-03-17T07:22:57.454Z,2.00
2023-03-17T07:25:24.928Z,2.10
2023-03-17T07:27:52.166Z,2.00
2023-03-17T07:30:20.149Z,2.00
2023-03-17T07:32:47.993Z,2.10
2023-03-17T07:35:16.322Z,2.00
2023-03-17T07:37:44.496Z,2.10
2023-03-17T07:40:12.918Z,2.20
2023-03-17T07:42:40.099Z,2.20
2023-03-17T07:45:08.189Z,2.30
2023-03-17T07:47:35.320Z,2.30
2023-03-17T07:50:02.496Z,2.20
2023-03-17T07:52:29.763Z,2.30
2023-03-17T07:54:58.351Z,2.40
2023-03-17T07:57:25.545Z,2.40
2023-03-17T07:59:52.912Z,2.40
2023-03-17T08:02:21.316Z,2.40
2023-03-17T08:04:48.828Z,2.50
2023-03-17T08:07:16.247Z,2.70
2023-03-17T08:09:43.555Z,2.60
2023-03-17T08:12:11.286Z,2.60
2023-03-17T08:14:38.586Z,2.80
2023-03-17T08:17:06.483Z,2.80
2023-03-17T08:19:33.585Z,2.90
2023-03-17T08:22:01.992Z,3.00
2023-03-17T08:24:29.580Z,3.10
2023-03-17T08:26:58.123Z,3.00
2023-03-17T08:29:26.859Z,2.90
2023-03-17T08:31:53.975Z,3.10
2023-03-17T08:34:21.136Z,3.20
2023-03-17T08:36:48.230Z,3.10
2023-03-17T08:39:15.298Z,3.20
2023-03-17T08:41:42.513Z,3.20
2023-03-17T08:44:10.362Z,3.20
2023-03-17T08:46:37.854Z,3.40
2023-03-17T08:49:04.912Z,3.20
2023-03-17T08:51:36.202Z,3.30
2023-03-17T08:54:05.202Z,3.50
2023-03-17T08:56:33.580Z,3.50
2023-03-17T08:59:00.727Z,3.30
2023-03-17T09:01:28.178Z,3.10
2023-03-17T09:03:56.395Z,3.20
2023-03-17T09:06:25.862Z,3.20
2023-03-17T09:08:55.721Z,3.20
2023-03-17T09:11:28.381Z,3.20
2023-03-17T09:13:56.677Z,3.30
2023-03-17T09:16:24.464Z,3.20
2023-03-17T09:18:51.595Z,3.20
2023-03-17T09:21:18.908Z,3.30
2023-03-17T09:23:46.800Z,3.20
2023-03-17T09:26:13.962Z,3.00
2023-03-17T09:28:41.277Z,3.10
2023-03-17T09:31:12.265Z,3.20
2023-03-17T09:33:40.953Z,3.30
2023-03-17T09:36:09.714Z,3.30
2023-03-17T09:38:37.389Z,3.50
2023-03-17T09:41:33.827Z,3.50
2023-03-17T09:44:31.545Z,3.50
2023-03-17T09:47:17.560Z,3.70
2023-03-17T09:50:01.291Z,3.60
2023-03-17T09:52:34.080Z,3.70
2023-03-17T09:55:05.343Z,3.70
2023-03-17T09:57:37.170Z,3.60
2023-03-17T10:00:14.705Z,3.70
2023-03-17T10:02:43.335Z,3.80
2023-03-17T10:05:19.824Z,4.00
2023-03-17T10:08:02.822Z,3.90
2023-03-17T10:10:32.960Z,4.10
2023-03-17T10:13:18.120Z,4.00
2023-03-17T10:15:51.712Z,3.80
2023-03-17T10:18:23.364Z,3.80
2023-03-17T10:21:02.512Z,3.90
2023-03-17T10:23:34.091Z,4.00
2023-03-17T10:26:31.808Z,4.10
2023-03-17T10:29:04.083Z,3.90
2023-03-17T10:31:34.804Z,3.70
2023-03-17T10:34:14.325Z,3.80
2023-03-17T10:36:45.732Z,4.00
2023-03-17T10:39:17.876Z,3.90
2023-03-17T10:42:00.547Z,3.90
2023-03-17T10:44:44.727Z,4.10
2023-03-17T10:47:30.218Z,4.20
2023-03-17T10:50:00.427Z,4.20
2023-03-17T10:52:30.578Z,4.30
2023-03-17T10:55:05.908Z,4.20
2023-03-17T10:57:37.594Z,4.20
2023-03-17T11:00:18.215Z,4.30
2023-03-17T11:02:49.654Z,4.10
2023-03-17T11:05:26.749Z,3.90
2023-03-17T11:08:17.217Z,3.90
2023-03-17T11:10:45.098Z,4.10
2023-03-17T11:13:17.443Z,4.10
2023-03-17T11:15:53.392Z,4.10
2023-03-17T11:18:26.428Z,4.00
2023-03-17T11:21:10.153Z,4.00
2023-03-17T11:23:43.050Z,3.90
2023-03-17T11:26:28.022Z,3.80
2023-03-17T11:29:14.342Z,4.00
2023-03-17T11:32:05.272Z,4.20
2023-03-17T11:34:35.243Z,4.30
2023-03-17T11:37:10.306Z,4.20
2023-03-17T11:39:51.195Z,3.90
2023-03-17T11:42:27.740Z,4.10
2023-03-17T11:44:57.785Z,4.00
2023-03-17T11:47:46.574Z,4.00
2023-03-17T11:50:22.617Z,4.00
2023-03-17T11:52:52.865Z,4.10
2023-03-17T11:55:23.393Z,4.10
2023-03-17T11:57:57.842Z,4.10
2023-03-17T12:00:38.683Z,4.10
2023-03-17T12:03:26.842Z,4.20
2023-03-17T12:06:00.012Z,4.10
2023-03-17T12:08:46.135Z,3.90
2023-03-17T12:11:18.397Z,4.00
2023-03-17T12:14:06.217Z,4.10
2023-03-17T12:16:47.074Z,4.00
2023-03-17T12:19:20.067Z,3.90
2023-03-17T12:21:59.367Z,3.80
2023-03-17T12:24:35.732Z,4.00
2023-03-17T12:27:02.839Z,4.00
2023-03-17T12:29:50.360Z,3.90
2023-03-17T12:32:22.211Z,3.90
2023-03-17T12:34:57.419Z,3.90
2023-03-17T12:37:27.805Z,4.00
2023-03-17T12:39:59.126Z,4.10
2023-03-17T12:42:32.693Z,4.10
2023-03-17T12:45:11.670Z,4.20
2023-03-17T12:48:01.174Z,4.20
2023-03-17T12:51:11.179Z,4.20
2023-03-17T12:53:51.326Z,4.00
2023-03-17T12:56:27.678Z,4.20
2023-03-17T12:59:02.115Z,4.10
2023-03-17T13:01:37.628Z,4.10
2023-03-17T13:04:28.059Z,4.10
2023-03-17T13:07:02.697Z,4.00
2023-03-17T13:09:37.850Z,4.00
2023-03-17T13:12:07.228Z,4.00
2023-03-17T13:14:46.474Z,4.00
2023-03-17T13:17:30.693Z,4.10
2023-03-17T13:20:10.481Z,4.10
2023-03-17T13:23:04.442Z,4.10
2023-03-17T13:25:38.502Z,4.00
2023-03-17T13:28:19.041Z,4.00
2023-03-17T13:30:55.214Z,4.00
2023-03-17T13:33:27.477Z,4.00
2023-03-17T13:36:17.404Z,3.80
2023-03-17T13:39:15.119Z,3.80
2023-03-17T13:41:43.510Z,3.80
2023-03-17T13:44:40.938Z,3.60
2023-03-17T13:47:23.493Z,3.70
2023-03-17T13:49:53.193Z,3.70
2023-03-17T13:52:39.861Z,3.70
2023-03-17T13:55:19.274Z,3.80
2023-03-17T13:58:10.949Z,3.80
2023-03-17T14:00:41.757Z,3.70
2023-03-17T14:03:34.198Z,3.60
2023-03-17T14:06:06.099Z,3.50
2023-03-17T14:08:47.644Z,3.60
2023-03-17T14:11:38.015Z,3.40
2023-03-17T14:14:31.105Z,3.40
2023-03-17T14:17:18.237Z,3.40
2023-03-17T14:20:08.626Z,3.30
2023-03-17T14:22:45.576Z,3.40
2023-03-17T14:25:22.595Z,3.40
2023-03-17T14:27:54.326Z,3.30
2023-03-17T14:30:28.402Z,3.40
2023-03-17T14:33:27.526Z,3.30
2023-03-17T14:35:58.612Z,3.20
2023-03-17T14:38:38.057Z,3.30
2023-03-17T14:41:23.581Z,3.30
2023-03-17T14:43:52.622Z,3.40
2023-03-17T14:46:37.525Z,3.30
2023-03-17T14:49:21.585Z,3.20
2023-03-17T14:51:53.687Z,3.20
2023-03-17T14:54:28.049Z,3.20
2023-03-17T14:57:03.342Z,3.30
2023-03-17T14:59:42.121Z,3.30
2023-03-17T15:02:18.116Z,3.30
2023-03-17T15:05:00.161Z,3.20
2023-03-17T15:07:41.835Z,3.30
2023-03-17T15:10:17.828Z,3.20
2023-03-17T15:12:48.952Z,3.10
2023-03-17T15:15:29.130Z,3.20
2023-03-17T15:17:58.766Z,3.20
2023-03-17T15:20:26.098Z,3.10
2023-03-17T15:22:57.937Z,3.20
2023-03-17T15:25:39.375Z,3.10
2023-03-17T15:28:13.616Z,3.10
2023-03-17T15:30:48.178Z,3.10
2023-03-17T15:33:39.683Z,3.10
2023-03-17T15:36:08.191Z,3.10
2023-03-17T15:38:39.045Z,3.10
2023-03-17T15:41:06.312Z,3.10
2023-03-17T15:43:33.438Z,3.10
2023-03-17T15:46:03.964Z,3.00
2023-03-17T15:48:35.359Z,3.00
2023-03-17T15:51:04.834Z,3.10
2023-03-17T15:53:32.311Z,3.10
2023-03-17T15:56:01.013Z,3.00
2023-03-17T15:58:29.141Z,3.00
2023-03-17T16:00:59.738Z,3.00
2023-03-17T16:03:39.572Z,2.90
2023-03-17T16:06:15.730Z,3.00
2023-03-17T16:08:44.714Z,3.00
2023-03-17T16:11:18.159Z,3.00
2023-03-17T16:13:46.438Z,3.00
2023-03-17T16:16:21.779Z,3.00
2023-03-17T16:18:51.257Z,2.90
2023-03-17T16:21:19.421Z,3.00
2023-03-17T16:23:48.475Z,3.00
2023-03-17T16:26:17.088Z,3.00
2023-03-17T16:28:46.116Z,3.00
2023-03-17T16:31:33.802Z,2.90
2023-03-17T16:34:01.031Z,2.90
2023-03-17T16:36:29.332Z,3.00
2023-03-17T16:39:01.865Z,3.00
2023-03-17T16:41:30.695Z,3.00
2023-03-17T16:44:02.442Z,3.00
2023-03-17T16:46:35.384Z,3.00
2023-03-17T16:49:04.286Z,3.00
2023-03-17T16:51:31.337Z,3.00
2023-03-17T16:53:59.771Z,3.00
2023-03-17T16:57:01.211Z,3.00
2023-03-17T17:01:25.232Z,3.00
2023-03-17T17:03:23.312Z,3.00
2023-03-17T17:07:09.783Z,3.00
2023-03-17T17:12:54.826Z,3.00
2023-03-17T17:15:39.425Z,3.00
2023-03-17T17:18:43.309Z,3.00
2023-03-17T17:38:03.820Z,3.00
2023-03-17T17:41:44.014Z,3.10
2023-03-17T17:47:40.468Z,3.10
2023-03-17T17:51:11.145Z,3.10
2023-03-17T17:54:16.703Z,3.10
2023-03-17T17:57:10.348Z,3.10
2023-03-17T17:59:49.170Z,3.10
2023-03-17T18:02:43.810Z,3.10
2023-03-17T18:06:29.577Z,3.20
2023-03-17T18:12:25.063Z,3.20
2023-03-17T18:14:52.236Z,3.20
2023-03-17T18:17:22.075Z,3.20
2023-03-17T18:19:53.063Z,3.20
2023-03-17T18:22:22.037Z,3.10
2023-03-17T18:24:51.743Z,3.10
2023-03-17T18:27:18.811Z,3.10
2023-03-17T18:29:47.796Z,3.10
2023-03-17T18:32:16.261Z,3.20
2023-03-17T18:34:46.410Z,3.20
2023-03-17T18:37:17.619Z,3.20
2023-03-17T18:39:48.434Z,3.20
2023-03-17T18:42:20.365Z,3.20
2023-03-17T18:44:47.323Z,3.20
2023-03-17T18:47:16.425Z,3.20
2023-03-17T18:49:46.038Z,3.20
2023-03-17T18:52:14.109Z,3.20
2023-03-17T18:54:41.456Z,3.30
2023-03-17T18:57:08.800Z,3.20
2023-03-17T18:59:35.908Z,3.30
2023-03-17T19:02:03.389Z,3.30
2023-03-17T19:04:30.741Z,3.30
2023-03-17T19:06:57.812Z,3.30
2023-03-17T19:09:27.879Z,3.30
2023-03-17T19:11:54.880Z,3.30
2023-03-17T19:14:22.244Z,3.30
2023-03-17T19:16:49.408Z,3.30
2023-03-17T19:19:16.576Z,3.30
2023-03-17T19:21:43.783Z,3.30
2023-03-17T19:24:13.601Z,3.30
2023-03-17T19:26:40.639Z,3.30
2023-03-17T19:29:12.121Z,3.30
2023-03-17T19:31:42.842Z,3.30
2023-03-17T19:34:12.518Z,3.40
2023-03-17T19:36:41.129Z,3.40
2023-03-17T19:39:14.104Z,3.40
2023-03-17T19:42:02.709Z,3.40
2023-03-17T19:46:34.761Z,3.40
2023-03-17T19:58:09.330Z,3.50
2023-03-17T20:32:13.556Z,3.70
2023-03-17T20:35:35.973Z,3.60
2023-03-17T20:45:09.602Z,3.60
2023-03-17T20:52:33.648Z,3.60
2023-03-17T21:05:36.883Z,3.70
2023-03-17T21:08:33.682Z,3.80
2023-03-17T21:11:23.368Z,3.80
2023-03-17T21:13:54.653Z,3.80
2023-03-17T21:22:48.738Z,3.80
2023-03-17T21:25:40.783Z,3.90
2023-03-17T21:28:34.727Z,4.00
2023-03-17T21:31:30.732Z,4.00
2023-03-17T21:41:43.980Z,3.90
2023-03-17T21:47:46.707Z,4.00
2023-03-17T21:50:27.990Z,4.00
2023-03-17T21:53:08.531Z,4.00
2023-03-17T21:56:12.332Z,4.00
2023-03-17T22:05:54.672Z,4.10
2023-03-17T22:11:49.080Z,4.00
2023-03-17T22:17:52.362Z,4.10
2023-03-17T22:20:52.913Z,4.10
2023-03-17T22:24:27.775Z,4.10
2023-03-17T22:29:16.124Z,4.10
2023-03-17T22:31:30.647Z,4.10
2023-03-17T22:34:20.192Z,4.10
2023-03-17T22:37:23.272Z,4.10
2023-03-17T22:40:13.074Z,4.10
2023-03-17T22:46:45.519Z,4.20
2023-03-17T22:49:13.226Z,4.20
2023-03-17T22:51:43.427Z,4.20
2023-03-17T22:54:12.311Z,4.10
2023-03-17T22:56:40.269Z,4.10
2023-03-17T22:59:07.550Z,4.20
2023-03-17T23:01:34.686Z,4.30
2023-03-17T23:04:02.493Z,4.30
2023-03-17T23:06:29.893Z,4.20
2023-03-17T23:08:58.081Z,4.30
2023-03-17T23:11:26.609Z,4.30
2023-03-17T23:13:54.690Z,4.30
2023-03-17T23:16:22.373Z,4.30
2023-03-17T23:18:49.833Z,4.30
2023-03-17T23:21:43.405Z,4.40
2023-03-17T23:24:10.713Z,4.40
2023-03-17T23:26:37.894Z,4.40
2023-03-17T23:29:08.628Z,4.40
2023-03-17T23:31:37.165Z,4.50
2023-03-17T23:34:06.737Z,4.50
2023-03-17T23:36:35.365Z,4.50
2023-03-17T23:39:02.784Z,4.50
2023-03-17T23:42:04.964Z,4.50
2023-03-17T23:44:32.019Z,4.60
2023-03-17T23:46:59.444Z,4.60
2023-03-17T23:49:27.601Z,4.60
2023-03-17T23:51:54.806Z,4.70
2023-03-17T23:54:23.029Z,4.70
2023-03-17T23:56:50.255Z,4.60
2023-03-17T23:59:17.408Z,4.60
